sensor_id;sensor_type;location;lat;lon;timestamp;P1;durP1;ratioP1;P2;durP2;ratioP2
71821;SDS011;64096;52.548;13.406;2023-04-07T06:03:50;12.73;;;8.02;;
71821;SDS011;64096;52.548;13.406;2023-04-07T06:06:16;13.40;;;8.32;;
71821;SDS011;64096;52.548;13.406;2023-04-07T06:08:42;12.18;;;7.68;;
71821;SDS011;64096;52.548;13.406;2023-04-07T06:11:08;11.32;;;7.50;;
71821;SDS011;64096;52.548;13.406;2023-04-07T06:13:34;13.50;;;8.65;;
71821;SDS011;64096;52.548;13.406;2023-04-07T06:16:00;11.00;;;7.60;;
71821;SDS011;64096;52.548;13.406;2023-04-07T06:18:27;11.23;;;7.57;;
71821;SDS011;64096;52.548;13.406;2023-04-07T06:20:53;13.23;;;8.55;;
71821;SDS011;64096;52.548;13.406;2023-04-07T06:23:20;9.93;;;7.05;;
71821;SDS011;64096;52.548;13.406;2023-04-07T06:25:46;13.55;;;7.75;;
71821;SDS011;64096;52.548;13.406;2023-04-07T06:28:16;12.60;;;8.43;;
71821;SDS011;64096;52.548;13.406;2023-04-07T06:30:42;11.77;;;7.70;;
71821;SDS011;64096;52.548;13.406;2023-04-07T06:33:08;10.82;;;7.25;;
71821;SDS011;64096;52.548;13.406;2023-04-07T06:35:34;13.25;;;8.27;;
71821;SDS011;64096;52.548;13.406;2023-04-07T06:38:00;11.98;;;8.13;;
71821;SDS011;64096;52.548;13.406;2023-04-07T06:40:26;14.55;;;8.68;;
71821;SDS011;64096;52.548;13.406;2023-04-07T06:42:52;11.80;;;8.18;;
71821;SDS011;64096;52.548;13.406;2023-04-07T06:45:19;11.88;;;8.75;;
71821;SDS011;64096;52.548;13.406;2023-04-07T06:47:45;12.88;;;8.38;;
71821;SDS011;64096;52.548;13.406;2023-04-07T06:50:12;15.20;;;8.60;;
71821;SDS011;64096;52.548;13.406;2023-04-07T06:52:38;12.23;;;7.88;;
71821;SDS011;64096;52.548;13.406;2023-04-07T06:55:04;13.75;;;8.88;;
71821;SDS011;64096;52.548;13.406;2023-04-07T06:57:31;12.43;;;9.57;;
71821;SDS011;64096;52.548;13.406;2023-04-07T06:59:58;13.80;;;8.65;;
71821;SDS011;64096;52.548;13.406;2023-04-07T07:02:24;13.75;;;9.20;;
71821;SDS011;64096;52.548;13.406;2023-04-07T07:04:50;12.68;;;8.57;;
71821;SDS011;64096;52.548;13.406;2023-04-07T07:07:16;14.25;;;8.63;;
71821;SDS011;64096;52.548;13.406;2023-04-07T07:09:42;11.65;;;8.40;;
71821;SDS011;64096;52.548;13.406;2023-04-07T07:12:08;15.55;;;8.75;;
71821;SDS011;64096;52.548;13.406;2023-04-07T07:14:34;12.70;;;8.65;;
71821;SDS011;64096;52.548;13.406;2023-04-07T07:17:00;12.90;;;8.88;;
71821;SDS011;64096;52.548;13.406;2023-04-07T07:19:26;12.52;;;8.82;;
71821;SDS011;64096;52.548;13.406;2023-04-07T07:21:52;12.02;;;7.97;;
71821;SDS011;64096;52.548;13.406;2023-04-07T07:24:19;12.35;;;7.43;;
71821;SDS011;64096;52.548;13.406;2023-04-07T07:26:45;10.50;;;6.75;;
71821;SDS011;64096;52.548;13.406;2023-04-07T07:29:11;9.95;;;7.00;;
71821;SDS011;64096;52.548;13.406;2023-04-07T07:31:37;10.85;;;6.78;;
71821;SDS011;64096;52.548;13.406;2023-04-07T07:34:03;11.13;;;6.22;;
71821;SDS011;64096;52.548;13.406;2023-04-07T07:36:29;9.13;;;6.05;;
71821;SDS011;64096;52.548;13.406;2023-04-07T07:38:56;10.98;;;6.20;;
71821;SDS011;64096;52.548;13.406;2023-04-07T07:41:22;10.70;;;6.22;;
71821;SDS011;64096;52.548;13.406;2023-04-07T07:43:48;7.60;;;5.32;;
71821;SDS011;64096;52.548;13.406;2023-04-07T07:46:14;10.50;;;6.15;;
71821;SDS011;64096;52.548;13.406;2023-04-07T07:48:40;9.27;;;6.20;;
71821;SDS011;64096;52.548;13.406;2023-04-07T07:51:06;8.60;;;5.68;;
71821;SDS011;64096;52.548;13.406;2023-04-07T07:53:32;10.00;;;5.60;;
71821;SDS011;64096;52.548;13.406;2023-04-07T07:55:58;10.48;;;6.18;;
71821;SDS011;64096;52.548;13.406;2023-04-07T07:58:25;11.00;;;6.28;;
71821;SDS011;64096;52.548;13.406;2023-04-07T08:00:51;12.07;;;5.90;;
71821;SDS011;64096;52.548;13.406;2023-04-07T08:03:18;8.35;;;5.30;;
71821;SDS011;64096;52.548;13.406;2023-04-07T08:05:47;8.40;;;5.22;;
71821;SDS011;64096;52.548;13.406;2023-04-07T08:08:13;9.50;;;5.70;;
71821;SDS011;64096;52.548;13.406;2023-04-07T08:10:39;8.30;;;5.60;;
71821;SDS011;64096;52.548;13.406;2023-04-07T08:13:05;11.30;;;5.40;;
71821;SDS011;64096;52.548;13.406;2023-04-07T08:15:32;8.70;;;4.85;;
71821;SDS011;64096;52.548;13.406;2023-04-07T08:17:58;8.93;;;4.93;;
71821;SDS011;64096;52.548;13.406;2023-04-07T08:20:25;10.18;;;6.05;;
71821;SDS011;64096;52.548;13.406;2023-04-07T08:22:51;7.80;;;4.93;;
71821;SDS011;64096;52.548;13.406;2023-04-07T08:25:17;8.23;;;5.10;;
71821;SDS011;64096;52.548;13.406;2023-04-07T08:27:44;9.02;;;5.38;;
71821;SDS011;64096;52.548;13.406;2023-04-07T08:30:11;8.55;;;4.88;;
71821;SDS011;64096;52.548;13.406;2023-04-07T08:32:38;8.45;;;5.07;;
71821;SDS011;64096;52.548;13.406;2023-04-07T08:35:07;7.90;;;4.43;;
71821;SDS011;64096;52.548;13.406;2023-04-07T08:37:33;10.15;;;5.15;;
71821;SDS011;64096;52.548;13.406;2023-04-07T08:40:00;9.35;;;5.45;;
71821;SDS011;64096;52.548;13.406;2023-04-07T08:42:27;8.43;;;4.65;;
71821;SDS011;64096;52.548;13.406;2023-04-07T08:44:57;8.15;;;4.15;;
71821;SDS011;64096;52.548;13.406;2023-04-07T08:47:24;6.95;;;3.90;;
71821;SDS011;64096;52.548;13.406;2023-04-07T08:49:53;7.40;;;4.20;;
71821;SDS011;64096;52.548;13.406;2023-04-07T08:52:22;7.72;;;4.50;;
71821;SDS011;64096;52.548;13.406;2023-04-07T08:54:50;7.40;;;4.13;;
71821;SDS011;64096;52.548;13.406;2023-04-07T08:57:17;8.20;;;4.63;;
71821;SDS011;64096;52.548;13.406;2023-04-07T08:59:43;8.32;;;4.50;;
71821;SDS011;64096;52.548;13.406;2023-04-07T09:02:13;8.32;;;4.32;;
71821;SDS011;64096;52.548;13.406;2023-04-07T09:04:39;7.60;;;3.95;;
71821;SDS011;64096;52.548;13.406;2023-04-07T09:07:06;5.90;;;3.30;;
71821;SDS011;64096;52.548;13.406;2023-04-07T09:09:32;7.63;;;3.78;;
71821;SDS011;64096;52.548;13.406;2023-04-07T09:11:58;6.10;;;3.47;;
71821;SDS011;64096;52.548;13.406;2023-04-07T09:14:24;5.70;;;3.22;;
71821;SDS011;64096;52.548;13.406;2023-04-07T09:16:50;8.25;;;3.58;;
71821;SDS011;64096;52.548;13.406;2023-04-07T09:19:17;6.10;;;3.50;;
71821;SDS011;64096;52.548;13.406;2023-04-07T09:21:46;5.97;;;3.50;;
71821;SDS011;64096;52.548;13.406;2023-04-07T09:24:23;6.28;;;3.50;;
71821;SDS011;64096;52.548;13.406;2023-04-07T09:26:50;6.03;;;3.13;;
71821;SDS011;64096;52.548;13.406;2023-04-07T09:29:17;6.75;;;3.45;;
71821;SDS011;64096;52.548;13.406;2023-04-07T09:31:47;6.20;;;3.17;;
71821;SDS011;64096;52.548;13.406;2023-04-07T09:34:27;6.07;;;2.90;;
71821;SDS011;64096;52.548;13.406;2023-04-07T09:36:54;5.97;;;3.30;;
71821;SDS011;64096;52.548;13.406;2023-04-07T09:39:21;6.35;;;3.25;;
71821;SDS011;64096;52.548;13.406;2023-04-07T09:41:47;6.43;;;3.03;;
71821;SDS011;64096;52.548;13.406;2023-04-07T09:44:13;5.30;;;2.80;;
71821;SDS011;64096;52.548;13.406;2023-04-07T09:49:15;5.95;;;2.75;;
71821;SDS011;64096;52.548;13.406;2023-04-07T09:51:58;5.70;;;2.83;;
71821;SDS011;64096;52.548;13.406;2023-04-07T09:54:31;7.00;;;3.60;;
71821;SDS011;64096;52.548;13.406;2023-04-07T09:56:58;5.65;;;2.83;;
71821;SDS011;64096;52.548;13.406;2023-04-07T09:59:26;4.95;;;2.70;;
71821;SDS011;64096;52.548;13.406;2023-04-07T10:01:53;6.95;;;3.20;;
71821;SDS011;64096;52.548;13.406;2023-04-07T10:04:19;5.90;;;2.92;;
71821;SDS011;64096;52.548;13.406;2023-04-07T10:06:46;6.97;;;2.80;;
71821;SDS011;64096;52.548;13.406;2023-04-07T10:09:12;5.63;;;3.05;;
71821;SDS011;64096;52.548;13.406;2023-04-07T10:11:39;5.70;;;3.05;;
71821;SDS011;64096;52.548;13.406;2023-04-07T10:14:06;6.18;;;2.67;;
71821;SDS011;64096;52.548;13.406;2023-04-07T10:16:34;5.38;;;2.92;;
71821;SDS011;64096;52.548;13.406;2023-04-07T10:19:00;6.20;;;3.10;;
71821;SDS011;64096;52.548;13.406;2023-04-07T10:21:27;5.60;;;2.97;;
71821;SDS011;64096;52.548;13.406;2023-04-07T10:24:04;7.07;;;3.53;;
71821;SDS011;64096;52.548;13.406;2023-04-07T10:26:34;5.90;;;3.22;;
71821;SDS011;64096;52.548;13.406;2023-04-07T10:29:05;5.00;;;3.00;;
71821;SDS011;64096;52.548;13.406;2023-04-07T10:31:33;7.15;;;3.25;;
71821;SDS011;64096;52.548;13.406;2023-04-07T10:33:59;5.82;;;3.10;;
71821;SDS011;64096;52.548;13.406;2023-04-07T10:36:26;7.90;;;3.90;;
71821;SDS011;64096;52.548;13.406;2023-04-07T10:41:34;7.60;;;3.50;;
71821;SDS011;64096;52.548;13.406;2023-04-07T10:44:43;6.80;;;3.55;;
71821;SDS011;64096;52.548;13.406;2023-04-07T10:47:02;6.78;;;3.70;;
71821;SDS011;64096;52.548;13.406;2023-04-07T10:49:29;6.50;;;3.80;;
71821;SDS011;64096;52.548;13.406;2023-04-07T10:54:39;7.13;;;3.67;;
71821;SDS011;64096;52.548;13.406;2023-04-07T10:57:10;6.53;;;3.58;;
71821;SDS011;64096;52.548;13.406;2023-04-07T11:00:22;6.50;;;3.75;;
71821;SDS011;64096;52.548;13.406;2023-04-07T11:04:49;6.78;;;4.22;;
71821;SDS011;64096;52.548;13.406;2023-04-07T11:07:16;5.85;;;3.65;;
71821;SDS011;64096;52.548;13.406;2023-04-07T11:09:43;6.47;;;3.75;;
71821;SDS011;64096;52.548;13.406;2023-04-07T11:12:22;7.82;;;4.55;;
71821;SDS011;64096;52.548;13.406;2023-04-07T11:14:48;5.70;;;3.65;;
71821;SDS011;64096;52.548;13.406;2023-04-07T11:17:14;8.52;;;5.35;;
71821;SDS011;64096;52.548;13.406;2023-04-07T11:19:50;7.22;;;5.05;;
71821;SDS011;64096;52.548;13.406;2023-04-07T11:22:16;7.68;;;5.45;;
71821;SDS011;64096;52.548;13.406;2023-04-07T11:24:44;7.68;;;5.30;;
71821;SDS011;64096;52.548;13.406;2023-04-07T11:27:14;9.38;;;5.70;;
71821;SDS011;64096;52.548;13.406;2023-04-07T11:29:40;7.30;;;5.18;;
71821;SDS011;64096;52.548;13.406;2023-04-07T11:32:07;7.90;;;5.85;;
71821;SDS011;64096;52.548;13.406;2023-04-07T11:34:34;7.93;;;5.53;;
71821;SDS011;64096;52.548;13.406;2023-04-07T11:39:54;8.23;;;5.75;;
71821;SDS011;64096;52.548;13.406;2023-04-07T11:42:33;6.88;;;5.13;;
71821;SDS011;64096;52.548;13.406;2023-04-07T11:45:00;7.95;;;5.13;;
71821;SDS011;64096;52.548;13.406;2023-04-07T11:47:33;7.00;;;4.95;;
71821;SDS011;64096;52.548;13.406;2023-04-07T11:50:00;6.85;;;4.38;;
71821;SDS011;64096;52.548;13.406;2023-04-07T11:52:26;6.55;;;4.68;;
71821;SDS011;64096;52.548;13.406;2023-04-07T11:54:52;7.15;;;4.97;;
71821;SDS011;64096;52.548;13.406;2023-04-07T11:57:25;6.82;;;4.55;;
71821;SDS011;64096;52.548;13.406;2023-04-07T12:00:04;7.25;;;4.90;;
71821;SDS011;64096;52.548;13.406;2023-04-07T12:02:31;7.38;;;4.82;;
71821;SDS011;64096;52.548;13.406;2023-04-07T12:04:57;8.10;;;5.03;;
71821;SDS011;64096;52.548;13.406;2023-04-07T12:07:24;7.40;;;4.53;;
71821;SDS011;64096;52.548;13.406;2023-04-07T12:09:52;7.63;;;5.10;;
71821;SDS011;64096;52.548;13.406;2023-04-07T12:12:24;7.78;;;5.22;;
71821;SDS011;64096;52.548;13.406;2023-04-07T12:14:54;8.57;;;5.35;;
71821;SDS011;64096;52.548;13.406;2023-04-07T12:17:26;6.90;;;4.40;;
71821;SDS011;64096;52.548;13.406;2023-04-07T12:19:52;7.25;;;4.43;;
71821;SDS011;64096;52.548;13.406;2023-04-07T12:22:18;7.18;;;4.85;;
71821;SDS011;64096;52.548;13.406;2023-04-07T12:24:44;7.22;;;4.28;;
71821;SDS011;64096;52.548;13.406;2023-04-07T12:27:10;7.03;;;4.18;;
71821;SDS011;64096;52.548;13.406;2023-04-07T12:29:37;7.07;;;4.63;;
71821;SDS011;64096;52.548;13.406;2023-04-07T12:32:03;6.50;;;3.97;;
71821;SDS011;64096;52.548;13.406;2023-04-07T12:34:29;6.30;;;4.25;;
71821;SDS011;64096;52.548;13.406;2023-04-07T12:36:55;7.05;;;4.35;;
71821;SDS011;64096;52.548;13.406;2023-04-07T12:39:21;6.60;;;4.20;;
71821;SDS011;64096;52.548;13.406;2023-04-07T12:41:47;6.28;;;3.60;;
71821;SDS011;64096;52.548;13.406;2023-04-07T12:44:17;6.97;;;3.97;;
71821;SDS011;64096;52.548;13.406;2023-04-07T12:46:43;5.68;;;3.58;;
71821;SDS011;64096;52.548;13.406;2023-04-07T12:49:09;5.82;;;3.55;;
71821;SDS011;64096;52.548;13.406;2023-04-07T12:51:35;7.55;;;3.42;;
71821;SDS011;64096;52.548;13.406;2023-04-07T12:54:03;5.35;;;3.17;;
71821;SDS011;64096;52.548;13.406;2023-04-07T12:56:30;6.43;;;3.10;;
71821;SDS011;64096;52.548;13.406;2023-04-07T12:58:56;4.50;;;2.67;;
71821;SDS011;64096;52.548;13.406;2023-04-07T13:01:22;4.72;;;2.85;;
71821;SDS011;64096;52.548;13.406;2023-04-07T13:03:48;4.60;;;2.92;;
71821;SDS011;64096;52.548;13.406;2023-04-07T13:06:15;4.53;;;2.70;;
71821;SDS011;64096;52.548;13.406;2023-04-07T13:08:41;4.07;;;2.60;;
71821;SDS011;64096;52.548;13.406;2023-04-07T13:11:07;5.63;;;2.85;;
71821;SDS011;64096;52.548;13.406;2023-04-07T13:13:33;5.03;;;3.22;;
71821;SDS011;64096;52.548;13.406;2023-04-07T13:15:59;4.47;;;2.60;;
71821;SDS011;64096;52.548;13.406;2023-04-07T13:18:25;4.63;;;2.70;;
71821;SDS011;64096;52.548;13.406;2023-04-07T13:20:51;4.70;;;2.80;;
71821;SDS011;64096;52.548;13.406;2023-04-07T13:23:17;5.55;;;3.00;;
71821;SDS011;64096;52.548;13.406;2023-04-07T13:25:43;5.57;;;2.85;;
71821;SDS011;64096;52.548;13.406;2023-04-07T13:28:10;4.90;;;3.28;;
71821;SDS011;64096;52.548;13.406;2023-04-07T13:30:36;5.40;;;2.70;;
71821;SDS011;64096;52.548;13.406;2023-04-07T13:33:02;5.75;;;3.25;;
71821;SDS011;64096;52.548;13.406;2023-04-07T13:35:28;5.40;;;3.22;;
71821;SDS011;64096;52.548;13.406;2023-04-07T13:37:59;5.15;;;2.90;;
71821;SDS011;64096;52.548;13.406;2023-04-07T13:40:25;5.57;;;3.30;;
71821;SDS011;64096;52.548;13.406;2023-04-07T13:42:51;5.22;;;2.80;;
71821;SDS011;64096;52.548;13.406;2023-04-07T13:45:17;5.03;;;3.13;;
71821;SDS011;64096;52.548;13.406;2023-04-07T13:47:43;5.72;;;3.40;;
71821;SDS011;64096;52.548;13.406;2023-04-07T13:50:10;4.90;;;2.95;;
71821;SDS011;64096;52.548;13.406;2023-04-07T13:52:36;5.38;;;3.28;;
71821;SDS011;64096;52.548;13.406;2023-04-07T13:55:02;5.78;;;3.40;;
71821;SDS011;64096;52.548;13.406;2023-04-07T13:57:29;5.50;;;3.33;;
71821;SDS011;64096;52.548;13.406;2023-04-07T13:59:55;5.35;;;3.28;;
